BAW4424 EGLL-EBBR
Flight info
| Callsign | BAW4424 |
|---|---|
| Flight time | 0h 39m |
| Altitude | 23000 |
| Route | DET Q70 KOK |
| Aircraft | A20N/M-SDE2E3FGHIRWXY/LB1 |
Departure
| Time | 2026-05-07 16:55 |
|---|---|
| Airport | London Heathrow Airport (EGLL) |
Arrival
| Time | 2026-05-07 17:34 |
|---|---|
| Airport | Brussels Airport (EBBR) |
| Time | Latitude | Longitude | Altitude | Speed | Heading |
|---|---|---|---|---|---|
| 2026-05-07 16:34 | 51.47130 | -0.48591 | 88 ft | 0 kts | 268° |
| 2026-05-07 16:47 | 51.47131 | -0.48576 | 91 ft | 2 kts | 268° |
| 2026-05-07 16:47 | 51.47131 | -0.48556 | 87 ft | 2 kts | 268° |
| 2026-05-07 16:47 | 51.47131 | -0.48534 | 87 ft | 2 kts | 268° |
| 2026-05-07 16:48 | 51.47132 | -0.48520 | 87 ft | 2 kts | 264° |
| 2026-05-07 16:48 | 51.47135 | -0.48499 | 90 ft | 2 kts | 236° |
| 2026-05-07 16:48 | 51.47144 | -0.48483 | 91 ft | 2 kts | 207° |
| 2026-05-07 16:48 | 51.47157 | -0.48476 | 89 ft | 1 kts | 176° |
| 2026-05-07 16:50 | 51.47132 | -0.48474 | 90 ft | 7 kts | 178° |
| 2026-05-07 16:51 | 51.47066 | -0.48472 | 88 ft | 12 kts | 179° |
| 2026-05-07 16:51 | 51.46969 | -0.48471 | 90 ft | 14 kts | 179° |
| 2026-05-07 16:51 | 51.46874 | -0.48470 | 93 ft | 10 kts | 179° |
| 2026-05-07 16:51 | 51.46792 | -0.48469 | 92 ft | 14 kts | 179° |
| 2026-05-07 16:52 | 51.46689 | -0.48468 | 93 ft | 16 kts | 179° |
| 2026-05-07 16:52 | 51.46582 | -0.48467 | 96 ft | 15 kts | 180° |
| 2026-05-07 16:52 | 51.46492 | -0.48455 | 94 ft | 14 kts | 152° |
| 2026-05-07 16:52 | 51.46478 | -0.48386 | 94 ft | 0 kts | 89° |
| 2026-05-07 16:55 | 51.46479 | -0.48170 | 92 ft | 63 kts | 90° |
| 2026-05-07 16:55 | 51.46485 | -0.46885 | 121 ft | 157 kts | 90° |
| 2026-05-07 16:55 | 51.46514 | -0.45061 | 1096 ft | 172 kts | 89° |
| 2026-05-07 16:55 | 51.46550 | -0.43074 | 2274 ft | 184 kts | 91° |
| 2026-05-07 16:56 | 51.46461 | -0.40934 | 3196 ft | 202 kts | 107° |
| 2026-05-07 16:56 | 51.45827 | -0.38822 | 4064 ft | 220 kts | 122° |
| 2026-05-07 16:56 | 51.44140 | -0.34110 | 5162 ft | 265 kts | 112° |
| 2026-05-07 16:57 | 51.43506 | -0.31330 | 5289 ft | 266 kts | 108° |
| 2026-05-07 16:57 | 51.42950 | -0.28497 | 5614 ft | 267 kts | 105° |
| 2026-05-07 16:57 | 51.42558 | -0.25585 | 6006 ft | 268 kts | 101° |
| 2026-05-07 16:57 | 51.42180 | -0.22656 | 6399 ft | 270 kts | 102° |
| 2026-05-07 16:58 | 51.41789 | -0.19708 | 6778 ft | 272 kts | 102° |
| 2026-05-07 16:58 | 51.41386 | -0.16736 | 7151 ft | 274 kts | 103° |
| 2026-05-07 16:58 | 51.40976 | -0.13743 | 7530 ft | 276 kts | 103° |
| 2026-05-07 16:58 | 51.40555 | -0.10726 | 7915 ft | 278 kts | 103° |
| 2026-05-07 16:59 | 51.40127 | -0.07695 | 8299 ft | 281 kts | 104° |
| 2026-05-07 16:59 | 51.39694 | -0.04635 | 8689 ft | 283 kts | 104° |
| 2026-05-07 16:59 | 51.39258 | -0.01554 | 9096 ft | 285 kts | 104° |
| 2026-05-07 16:59 | 51.38818 | 0.01559 | 9517 ft | 288 kts | 104° |
| 2026-05-07 17:00 | 51.38379 | 0.04651 | 9910 ft | 290 kts | 104° |
| 2026-05-07 17:00 | 51.37926 | 0.07832 | 10289 ft | 302 kts | 104° |
| 2026-05-07 17:00 | 51.37427 | 0.11286 | 10677 ft | 333 kts | 104° |
| 2026-05-07 17:00 | 51.36899 | 0.14930 | 11043 ft | 339 kts | 104° |
| 2026-05-07 17:01 | 51.36363 | 0.18633 | 11435 ft | 342 kts | 104° |
| 2026-05-07 17:01 | 51.35827 | 0.22356 | 11805 ft | 343 kts | 104° |
| 2026-05-07 17:01 | 51.35292 | 0.26089 | 12187 ft | 346 kts | 104° |
| 2026-05-07 17:01 | 51.34754 | 0.29835 | 12574 ft | 347 kts | 104° |
| 2026-05-07 17:02 | 51.34210 | 0.33613 | 12968 ft | 349 kts | 104° |
| 2026-05-07 17:02 | 51.33662 | 0.37407 | 13367 ft | 351 kts | 104° |
| 2026-05-07 17:02 | 51.33114 | 0.41184 | 13769 ft | 354 kts | 104° |
| 2026-05-07 17:02 | 51.32555 | 0.45033 | 13948 ft | 357 kts | 104° |
| 2026-05-07 17:03 | 51.31989 | 0.48912 | 14307 ft | 359 kts | 104° |
| 2026-05-07 17:03 | 51.31419 | 0.52805 | 14676 ft | 361 kts | 104° |
| 2026-05-07 17:03 | 51.30845 | 0.56728 | 15049 ft | 364 kts | 104° |
| 2026-05-07 17:03 | 51.30382 | 0.60721 | 15439 ft | 367 kts | 97° |
| 2026-05-07 17:04 | 51.30215 | 0.64815 | 15838 ft | 371 kts | 94° |
| 2026-05-07 17:04 | 51.30078 | 0.68947 | 16238 ft | 373 kts | 94° |
| 2026-05-07 17:04 | 51.29932 | 0.73101 | 16646 ft | 376 kts | 94° |
| 2026-05-07 17:04 | 51.29781 | 0.77295 | 17062 ft | 379 kts | 94° |
| 2026-05-07 17:05 | 51.29627 | 0.81512 | 17478 ft | 382 kts | 94° |
| 2026-05-07 17:05 | 51.29470 | 0.85757 | 17910 ft | 384 kts | 94° |
| 2026-05-07 17:05 | 51.29310 | 0.90034 | 18335 ft | 387 kts | 94° |
| 2026-05-07 17:05 | 51.29147 | 0.94342 | 18726 ft | 390 kts | 94° |
| 2026-05-07 17:06 | 51.28982 | 0.98671 | 19089 ft | 391 kts | 94° |
| 2026-05-07 17:06 | 51.28815 | 1.03019 | 19455 ft | 394 kts | 94° |
| 2026-05-07 17:06 | 51.28645 | 1.07398 | 19819 ft | 396 kts | 94° |
| 2026-05-07 17:06 | 51.28474 | 1.11745 | 20184 ft | 399 kts | 94° |
| 2026-05-07 17:07 | 51.28296 | 1.16194 | 20577 ft | 401 kts | 94° |
| 2026-05-07 17:07 | 51.28117 | 1.20639 | 20959 ft | 404 kts | 95° |
| 2026-05-07 17:07 | 51.27935 | 1.25126 | 21349 ft | 406 kts | 95° |
| 2026-05-07 17:07 | 51.27749 | 1.29642 | 21744 ft | 409 kts | 95° |
| 2026-05-07 17:08 | 51.27561 | 1.34188 | 22144 ft | 412 kts | 95° |
| 2026-05-07 17:08 | 51.27370 | 1.38757 | 22549 ft | 414 kts | 95° |
| 2026-05-07 17:08 | 51.27175 | 1.43369 | 22871 ft | 417 kts | 95° |
| 2026-05-07 17:08 | 51.26979 | 1.47986 | 22977 ft | 417 kts | 95° |
| 2026-05-07 17:09 | 51.26780 | 1.52615 | 23061 ft | 418 kts | 95° |
| 2026-05-07 17:09 | 51.26579 | 1.57252 | 23065 ft | 418 kts | 95° |
| 2026-05-07 17:09 | 51.26378 | 1.61876 | 23065 ft | 418 kts | 95° |
| 2026-05-07 17:09 | 51.26173 | 1.66510 | 23051 ft | 418 kts | 95° |
| 2026-05-07 17:10 | 51.25967 | 1.71142 | 23065 ft | 418 kts | 95° |
| 2026-05-07 17:10 | 51.25760 | 1.75766 | 23059 ft | 418 kts | 95° |
| 2026-05-07 17:10 | 51.25550 | 1.80398 | 23062 ft | 418 kts | 95° |
| 2026-05-07 17:10 | 51.25339 | 1.85020 | 23060 ft | 418 kts | 95° |
| 2026-05-07 17:11 | 51.25125 | 1.89659 | 23059 ft | 418 kts | 95° |
| 2026-05-07 17:11 | 51.24910 | 1.94276 | 23065 ft | 417 kts | 95° |
| 2026-05-07 17:11 | 51.24694 | 1.98893 | 23065 ft | 417 kts | 95° |
| 2026-05-07 17:11 | 51.24476 | 2.03512 | 23064 ft | 417 kts | 95° |
| 2026-05-07 17:12 | 51.24258 | 2.08131 | 23063 ft | 417 kts | 95° |
| 2026-05-07 17:12 | 51.24039 | 2.12749 | 23064 ft | 417 kts | 95° |
| 2026-05-07 17:12 | 51.23818 | 2.17366 | 23063 ft | 417 kts | 95° |
| 2026-05-07 17:12 | 51.23595 | 2.21987 | 23063 ft | 417 kts | 95° |
| 2026-05-07 17:13 | 51.23370 | 2.26607 | 23064 ft | 418 kts | 95° |
| 2026-05-07 17:13 | 51.23143 | 2.31220 | 23063 ft | 418 kts | 95° |
| 2026-05-07 17:13 | 51.22884 | 2.35839 | 23057 ft | 417 kts | 100° |
| 2026-05-07 17:13 | 51.22125 | 2.40273 | 23064 ft | 414 kts | 114° |
| 2026-05-07 17:14 | 51.20733 | 2.44269 | 23064 ft | 411 kts | 128° |
| 2026-05-07 17:14 | 51.18904 | 2.47752 | 23063 ft | 410 kts | 133° |
| 2026-05-07 17:14 | 51.17039 | 2.51186 | 23064 ft | 410 kts | 133° |
| 2026-05-07 17:14 | 51.15177 | 2.54617 | 23064 ft | 410 kts | 133° |
| 2026-05-07 17:15 | 51.13316 | 2.58051 | 23061 ft | 410 kts | 133° |
| 2026-05-07 17:15 | 51.11472 | 2.61509 | 23060 ft | 410 kts | 129° |
| 2026-05-07 17:15 | 51.09972 | 2.65311 | 23062 ft | 413 kts | 118° |
| 2026-05-07 17:15 | 51.08951 | 2.69585 | 23062 ft | 415 kts | 106° |
| 2026-05-07 17:16 | 51.08376 | 2.74094 | 23062 ft | 416 kts | 102° |
| 2026-05-07 17:16 | 51.07847 | 2.78618 | 23062 ft | 416 kts | 102° |
| 2026-05-07 17:16 | 51.07310 | 2.83148 | 23074 ft | 416 kts | 102° |
| 2026-05-07 17:16 | 51.06770 | 2.87653 | 23073 ft | 415 kts | 102° |
| 2026-05-07 17:17 | 51.06225 | 2.92163 | 23072 ft | 415 kts | 102° |
| 2026-05-07 17:17 | 51.05678 | 2.96666 | 23071 ft | 415 kts | 102° |
| 2026-05-07 17:17 | 51.05127 | 3.01176 | 23070 ft | 415 kts | 102° |
| 2026-05-07 17:17 | 51.04575 | 3.05684 | 23073 ft | 415 kts | 102° |
| 2026-05-07 17:18 | 51.04022 | 3.10186 | 23071 ft | 415 kts | 102° |
| 2026-05-07 17:18 | 51.03466 | 3.14691 | 23071 ft | 415 kts | 102° |
| 2026-05-07 17:18 | 51.02909 | 3.19195 | 23069 ft | 415 kts | 102° |
| 2026-05-07 17:18 | 51.02352 | 3.23684 | 23010 ft | 413 kts | 102° |
| 2026-05-07 17:19 | 51.01796 | 3.28152 | 22593 ft | 410 kts | 102° |
| 2026-05-07 17:19 | 51.01243 | 3.32575 | 21959 ft | 407 kts | 102° |
| 2026-05-07 17:19 | 51.00694 | 3.36953 | 21270 ft | 403 kts | 102° |
| 2026-05-07 17:19 | 51.00149 | 3.41287 | 20579 ft | 399 kts | 102° |
| 2026-05-07 17:20 | 50.99608 | 3.45581 | 19911 ft | 394 kts | 102° |
| 2026-05-07 17:20 | 50.99071 | 3.49823 | 19255 ft | 390 kts | 102° |
| 2026-05-07 17:20 | 50.98538 | 3.54027 | 18609 ft | 386 kts | 102° |
| 2026-05-07 17:20 | 50.98008 | 3.58189 | 17917 ft | 383 kts | 102° |
| 2026-05-07 17:21 | 50.97483 | 3.62300 | 17247 ft | 378 kts | 102° |
| 2026-05-07 17:21 | 50.96964 | 3.66361 | 16586 ft | 374 kts | 102° |
| 2026-05-07 17:21 | 50.96456 | 3.70318 | 15947 ft | 369 kts | 102° |
| 2026-05-07 17:21 | 50.95944 | 3.74292 | 15313 ft | 366 kts | 102° |
| 2026-05-07 17:22 | 50.95430 | 3.78271 | 14676 ft | 362 kts | 102° |
| 2026-05-07 17:22 | 50.94932 | 3.82112 | 14079 ft | 358 kts | 102° |
| 2026-05-07 17:22 | 50.94434 | 3.85950 | 13568 ft | 352 kts | 102° |
| 2026-05-07 17:22 | 50.93952 | 3.89658 | 13383 ft | 335 kts | 102° |
| 2026-05-07 17:23 | 50.93490 | 3.93199 | 13226 ft | 320 kts | 102° |
| 2026-05-07 17:23 | 50.93051 | 3.96554 | 13030 ft | 307 kts | 102° |
| 2026-05-07 17:23 | 50.92787 | 3.99889 | 12588 ft | 305 kts | 87° |
| 2026-05-07 17:23 | 50.93294 | 4.03134 | 12119 ft | 304 kts | 70° |
| 2026-05-07 17:24 | 50.94046 | 4.06253 | 11657 ft | 302 kts | 69° |
| 2026-05-07 17:24 | 50.94796 | 4.09351 | 11225 ft | 300 kts | 69° |
| 2026-05-07 17:24 | 50.95542 | 4.12429 | 10802 ft | 298 kts | 69° |
| 2026-05-07 17:24 | 50.96283 | 4.15490 | 10387 ft | 296 kts | 69° |
| 2026-05-07 17:25 | 50.97017 | 4.18526 | 9962 ft | 294 kts | 69° |
| 2026-05-07 17:25 | 50.97748 | 4.21550 | 9505 ft | 292 kts | 69° |
| 2026-05-07 17:25 | 50.98472 | 4.24544 | 9082 ft | 289 kts | 69° |
| 2026-05-07 17:25 | 50.99189 | 4.27505 | 8644 ft | 286 kts | 69° |
| 2026-05-07 17:26 | 50.99901 | 4.30442 | 8205 ft | 284 kts | 69° |
| 2026-05-07 17:26 | 51.00607 | 4.33348 | 7776 ft | 281 kts | 69° |
| 2026-05-07 17:26 | 51.01309 | 4.36235 | 7358 ft | 278 kts | 69° |
| 2026-05-07 17:26 | 51.02002 | 4.39087 | 6945 ft | 276 kts | 69° |
| 2026-05-07 17:27 | 51.02645 | 4.41940 | 6535 ft | 273 kts | 77° |
| 2026-05-07 17:27 | 51.02780 | 4.44919 | 6097 ft | 270 kts | 92° |
| 2026-05-07 17:27 | 51.02721 | 4.47894 | 5672 ft | 268 kts | 92° |
| 2026-05-07 17:27 | 51.02658 | 4.50838 | 5264 ft | 265 kts | 92° |
| 2026-05-07 17:28 | 51.02589 | 4.53753 | 4855 ft | 263 kts | 92° |
| 2026-05-07 17:28 | 51.02515 | 4.56603 | 4427 ft | 261 kts | 92° |
| 2026-05-07 17:28 | 51.02439 | 4.59478 | 3999 ft | 260 kts | 92° |
| 2026-05-07 17:28 | 51.02362 | 4.62322 | 3685 ft | 254 kts | 92° |
| 2026-05-07 17:29 | 51.02164 | 4.65032 | 3568 ft | 241 kts | 109° |
| 2026-05-07 17:29 | 51.01376 | 4.67307 | 3480 ft | 230 kts | 122° |
| 2026-05-07 17:29 | 51.00531 | 4.69393 | 3388 ft | 220 kts | 122° |
| 2026-05-07 17:29 | 50.99714 | 4.71407 | 3184 ft | 216 kts | 122° |
| 2026-05-07 17:30 | 50.98792 | 4.73280 | 2902 ft | 216 kts | 142° |
| 2026-05-07 17:30 | 50.97413 | 4.74146 | 2638 ft | 216 kts | 176° |
| 2026-05-07 17:30 | 50.95999 | 4.73606 | 2547 ft | 207 kts | 212° |
| 2026-05-07 17:30 | 50.94941 | 4.72145 | 2465 ft | 197 kts | 229° |
| 2026-05-07 17:31 | 50.94206 | 4.70457 | 2326 ft | 177 kts | 242° |
| 2026-05-07 17:31 | 50.93704 | 4.68719 | 2255 ft | 184 kts | 248° |
| 2026-05-07 17:31 | 50.93243 | 4.66814 | 2096 ft | 186 kts | 250° |
| 2026-05-07 17:31 | 50.92809 | 4.64938 | 1864 ft | 170 kts | 250° |
| 2026-05-07 17:32 | 50.92426 | 4.63281 | 1658 ft | 151 kts | 250° |
| 2026-05-07 17:32 | 50.92078 | 4.61780 | 1468 ft | 147 kts | 250° |
| 2026-05-07 17:32 | 50.91731 | 4.60273 | 1267 ft | 143 kts | 250° |
| 2026-05-07 17:32 | 50.91504 | 4.59291 | 1134 ft | 144 kts | 250° |
| 2026-05-07 17:33 | 50.91045 | 4.57303 | 857 ft | 143 kts | 251° |
| 2026-05-07 17:33 | 50.90701 | 4.55816 | 669 ft | 143 kts | 251° |
| 2026-05-07 17:33 | 50.90359 | 4.54331 | 469 ft | 144 kts | 252° |
| 2026-05-07 17:33 | 50.90019 | 4.52865 | 282 ft | 144 kts | 251° |
| 2026-05-07 17:34 | 50.89679 | 4.51393 | 153 ft | 135 kts | 252° |
| 2026-05-07 17:34 | 50.89418 | 4.50260 | 147 ft | 63 kts | 250° |
| 2026-05-07 17:34 | 50.89326 | 4.49866 | 149 ft | 37 kts | 250° |
| 2026-05-07 17:34 | 50.89251 | 4.49541 | 143 ft | 32 kts | 250° |
| 2026-05-07 17:35 | 50.89204 | 4.49299 | 141 ft | 3 kts | 293° |
| 2026-05-07 17:35 | 50.89256 | 4.49267 | 141 ft | 12 kts | 319° |
| 2026-05-07 17:35 | 50.89301 | 4.49177 | 140 ft | 0 kts | 309° |
| 2026-05-07 17:35 | 50.89302 | 4.49176 | 140 ft | 0 kts | 309° |